createdAt,value
2019-06-10T00:00:53.710Z,3.53
2019-06-10T00:03:22.127Z,3.40
2019-06-10T00:05:51.800Z,3.30
2019-06-10T00:08:20.886Z,3.20
2019-06-10T00:10:51.062Z,3.50
2019-06-10T00:13:20.902Z,3.20
2019-06-10T00:15:51.558Z,3.90
2019-06-10T00:18:37.238Z,3.40
2019-06-10T00:20:51.216Z,2.93
2019-06-10T00:23:21.256Z,2.60
2019-06-10T00:25:51.552Z,3.27
2019-06-10T00:28:21.748Z,3.10
2019-06-10T00:30:51.578Z,2.93
2019-06-10T00:33:21.588Z,3.43
2019-06-10T00:35:51.485Z,3.07
2019-06-10T00:38:21.428Z,4.10
2019-06-10T00:40:51.373Z,3.00
2019-06-10T00:43:21.456Z,3.50
2019-06-10T00:45:51.306Z,3.67
2019-06-10T00:48:26.166Z,3.63
2019-06-10T00:50:51.819Z,3.07
2019-06-10T00:53:21.207Z,3.43
2019-06-10T00:55:51.617Z,3.20
2019-06-10T00:58:21.630Z,3.80
2019-06-10T01:00:51.664Z,3.50
2019-06-10T01:03:20.953Z,3.60
2019-06-10T01:05:50.925Z,3.37
2019-06-10T01:08:21.439Z,3.17
2019-06-10T01:10:52.206Z,3.30
2019-06-10T01:13:21.846Z,3.37
2019-06-10T01:15:51.160Z,4.57
2019-06-10T01:18:34.593Z,3.10
2019-06-10T01:20:52.400Z,3.00
2019-06-10T01:23:21.815Z,3.50
2019-06-10T01:25:51.046Z,3.20
2019-06-10T01:28:22.100Z,3.80
2019-06-10T01:30:51.674Z,3.60
2019-06-10T01:33:21.242Z,2.77
2019-06-10T01:35:51.528Z,2.90
2019-06-10T01:38:21.189Z,3.27
2019-06-10T01:40:50.994Z,3.80
2019-06-10T01:43:21.451Z,3.73
2019-06-10T01:45:51.138Z,3.50
2019-06-10T01:48:21.029Z,3.17
2019-06-10T01:50:51.272Z,3.73
2019-06-10T01:53:22.050Z,3.03
2019-06-10T01:55:52.037Z,3.10
2019-06-10T01:58:23.288Z,3.70
2019-06-10T02:01:04.059Z,2.90
2019-06-10T02:03:32.479Z,3.50
2019-06-10T02:06:01.535Z,3.40
2019-06-10T02:08:31.583Z,3.10
2019-06-10T02:11:01.212Z,4.00
2019-06-10T02:13:32.930Z,3.30
2019-06-10T02:16:02.532Z,3.40
2019-06-10T02:18:32.162Z,3.30
2019-06-10T02:21:01.555Z,4.20
2019-06-10T02:23:31.570Z,4.20
2019-06-10T02:26:01.765Z,4.00
2019-06-10T02:28:31.755Z,3.57
2019-06-10T02:31:03.003Z,3.60
2019-06-10T02:33:36.073Z,4.20
2019-06-10T02:36:04.142Z,3.60
2019-06-10T02:38:38.895Z,4.00
2019-06-10T02:41:04.301Z,3.67
2019-06-10T02:43:37.401Z,3.60
2019-06-10T02:46:05.011Z,3.60
2019-06-10T02:48:34.927Z,3.27
2019-06-10T02:51:06.041Z,3.10
2019-06-10T02:53:36.315Z,3.70
2019-06-10T02:56:06.375Z,3.30
2019-06-10T02:58:38.989Z,3.70
2019-06-10T03:01:05.752Z,4.37
2019-06-10T03:03:42.901Z,3.53
2019-06-10T03:06:07.261Z,3.10
2019-06-10T03:08:36.556Z,3.50
2019-06-10T03:11:05.399Z,3.43
2019-06-10T03:13:33.912Z,2.83
2019-06-10T03:16:13.221Z,2.83
2019-06-10T03:18:43.498Z,3.20
2019-06-10T03:21:12.426Z,2.87
2019-06-10T03:23:42.691Z,3.20
2019-06-10T03:26:12.431Z,3.20
2019-06-10T03:28:42.725Z,2.87
2019-06-10T03:31:15.043Z,4.03
2019-06-10T03:33:47.006Z,3.20
2019-06-10T03:36:12.386Z,3.07
2019-06-10T03:38:43.204Z,3.40
2019-06-10T03:41:12.441Z,3.10
2019-06-10T03:43:42.877Z,2.73
2019-06-10T03:46:13.659Z,3.17
2019-06-10T03:48:43.258Z,3.10
2019-06-10T03:51:12.778Z,2.90
2019-06-10T03:53:42.650Z,3.87
2019-06-10T03:56:12.914Z,3.30
2019-06-10T03:58:43.116Z,3.73
2019-06-10T04:01:12.393Z,4.57
2019-06-10T04:03:42.734Z,3.67
2019-06-10T04:06:12.983Z,3.77
2019-06-10T04:08:43.270Z,3.13
2019-06-10T04:11:12.303Z,3.40
2019-06-10T04:13:43.078Z,4.33
2019-06-10T04:16:13.120Z,3.43
2019-06-10T04:18:42.965Z,4.50
2019-06-10T04:21:12.993Z,3.50
2019-06-10T04:23:42.345Z,4.43
2019-06-10T04:26:12.841Z,3.97
2019-06-10T04:28:43.108Z,4.33
2019-06-10T04:31:13.148Z,3.90
2019-06-10T04:33:42.375Z,4.60
2019-06-10T04:36:13.257Z,3.90
2019-06-10T04:38:43.162Z,3.90
2019-06-10T04:41:12.644Z,4.00
2019-06-10T04:43:43.244Z,3.40
2019-06-10T04:46:12.625Z,3.60
2019-06-10T04:48:42.760Z,3.60
2019-06-10T04:51:13.044Z,3.80
2019-06-10T04:53:43.566Z,3.70
2019-06-10T04:56:12.355Z,4.27
2019-06-10T04:58:43.319Z,3.60
2019-06-10T05:01:12.240Z,3.30
2019-06-10T05:03:43.216Z,3.00
2019-06-10T05:06:12.273Z,4.30
2019-06-10T05:08:42.723Z,3.20
2019-06-10T05:11:12.800Z,3.47
2019-06-10T05:13:42.905Z,3.47
2019-06-10T05:16:12.564Z,2.63
2019-06-10T05:18:42.874Z,3.10
2019-06-10T05:21:13.167Z,3.80
2019-06-10T05:23:43.069Z,2.93
2019-06-10T05:26:13.364Z,3.67
2019-06-10T05:28:43.252Z,3.63
2019-06-10T05:31:12.940Z,3.90
2019-06-10T05:33:42.578Z,4.03
2019-06-10T05:36:13.040Z,3.20
2019-06-10T05:38:43.451Z,3.60
2019-06-10T05:41:13.377Z,3.93
2019-06-10T05:43:43.076Z,3.43
2019-06-10T05:46:13.468Z,3.37
2019-06-10T05:48:43.817Z,3.10
2019-06-10T05:51:12.549Z,3.60
2019-06-10T05:53:42.641Z,3.40
2019-06-10T05:56:12.836Z,3.93
2019-06-10T05:58:43.660Z,3.70
2019-06-10T06:01:13.186Z,3.50
2019-06-10T06:03:43.890Z,3.93
2019-06-10T06:06:12.614Z,3.23
2019-06-10T06:08:42.933Z,3.30
2019-06-10T06:11:12.622Z,3.43
2019-06-10T06:16:07.368Z,3.77
2019-06-10T06:18:36.484Z,3.77
2019-06-10T06:21:21.000Z,3.20
2019-06-10T06:23:38.220Z,2.93
2019-06-10T06:26:06.732Z,4.00
2019-06-10T06:28:36.115Z,3.23
2019-06-10T06:31:04.935Z,3.27
2019-06-10T06:33:37.701Z,3.70
2019-06-10T06:36:03.770Z,3.33
2019-06-10T06:38:34.935Z,3.43
2019-06-10T06:41:03.213Z,3.70
2019-06-10T06:43:38.604Z,3.80
2019-06-10T06:46:02.648Z,4.10
2019-06-10T06:48:35.649Z,3.37
2019-06-10T06:51:07.543Z,4.70
2019-06-10T06:53:39.556Z,3.10
2019-06-10T06:56:03.591Z,4.20
2019-06-10T06:58:35.237Z,3.00
2019-06-10T07:01:10.109Z,3.30
2019-06-10T07:03:35.333Z,3.87
2019-06-10T07:06:03.354Z,4.07
2019-06-10T07:08:36.140Z,3.97
2019-06-10T07:11:04.469Z,4.40
2019-06-10T07:13:37.084Z,4.30
2019-06-10T07:16:04.578Z,4.53
2019-06-10T07:18:38.931Z,4.03
2019-06-10T07:21:03.430Z,3.97
2019-06-10T07:23:35.474Z,3.97
2019-06-10T07:26:02.885Z,3.50
2019-06-10T07:28:34.026Z,4.10
2019-06-10T07:31:03.211Z,3.90
2019-06-10T07:33:34.820Z,4.70
2019-06-10T07:36:03.293Z,4.40
2019-06-10T07:38:33.929Z,5.03
2019-06-10T07:41:02.781Z,4.70
2019-06-10T07:43:33.988Z,5.70
2019-06-10T07:46:03.451Z,4.57
2019-06-10T07:48:34.498Z,4.77
2019-06-10T07:51:02.873Z,4.50
2019-06-10T07:53:33.151Z,5.50
2019-06-10T07:56:03.314Z,4.87
2019-06-10T07:58:34.974Z,4.10
2019-06-10T08:01:02.922Z,3.57
2019-06-10T08:03:33.401Z,4.40
2019-06-10T08:06:03.275Z,4.27
2019-06-10T08:08:32.845Z,4.13
2019-06-10T08:11:03.470Z,3.47
2019-06-10T08:13:32.427Z,3.67
2019-06-10T08:16:02.719Z,4.00
2019-06-10T08:18:38.546Z,4.20
2019-06-10T08:21:03.128Z,4.00
2019-06-10T08:23:32.853Z,3.90
2019-06-10T08:26:03.468Z,4.13
2019-06-10T08:28:33.337Z,4.20
2019-06-10T08:31:03.809Z,4.27
2019-06-10T08:33:33.061Z,3.80
2019-06-10T08:36:04.090Z,3.67
2019-06-10T08:38:33.059Z,3.93
2019-06-10T08:41:03.195Z,4.10
2019-06-10T08:43:33.173Z,3.63
2019-06-10T08:46:02.761Z,3.30
2019-06-10T08:48:32.920Z,4.60
2019-06-10T08:51:03.895Z,4.30
2019-06-10T08:53:32.951Z,4.23
2019-06-10T08:56:02.968Z,3.97
2019-06-10T08:58:33.078Z,4.67
2019-06-10T09:01:02.449Z,4.80
2019-06-10T09:03:32.511Z,5.80
2019-06-10T09:06:02.809Z,5.67
2019-06-10T09:08:32.550Z,4.27
2019-06-10T09:11:02.863Z,4.23
2019-06-10T09:13:33.710Z,3.23
2019-06-10T09:16:14.718Z,2.97
2019-06-10T09:18:33.685Z,3.10
2019-06-10T09:21:02.507Z,3.17
2019-06-10T09:23:33.151Z,3.10
2019-06-10T09:26:03.528Z,3.10
2019-06-10T09:28:32.859Z,3.13
2019-06-10T09:31:04.316Z,2.80
2019-06-10T09:33:33.140Z,3.30
2019-06-10T09:36:03.284Z,2.57
2019-06-10T09:38:33.461Z,2.80
2019-06-10T09:41:05.879Z,2.90
2019-06-10T09:43:33.446Z,3.03
2019-06-10T09:46:03.559Z,2.80
2019-06-10T09:48:33.637Z,2.43
2019-06-10T09:51:02.662Z,2.40
2019-06-10T09:53:41.281Z,2.93
2019-06-10T09:56:04.236Z,2.70
2019-06-10T09:58:33.226Z,2.67
2019-06-10T10:01:03.573Z,2.50
2019-06-10T10:03:33.196Z,2.63
2019-06-10T10:06:11.640Z,2.83
2019-06-10T10:08:34.340Z,2.03
2019-06-10T10:11:03.258Z,2.87
2019-06-10T10:13:35.257Z,2.30
2019-06-10T10:16:02.873Z,2.40
2019-06-10T10:18:33.404Z,3.30
2019-06-10T10:21:03.943Z,2.70
2019-06-10T10:23:48.472Z,2.20
2019-06-10T10:26:03.458Z,2.60
2019-06-10T10:28:33.370Z,3.43
2019-06-10T10:31:04.443Z,2.70
2019-06-10T10:33:33.296Z,2.70
2019-06-10T10:36:02.900Z,2.60
2019-06-10T10:38:34.474Z,2.80
2019-06-10T10:41:04.461Z,3.60
2019-06-10T10:43:36.569Z,3.50
2019-06-10T10:46:05.490Z,2.80
2019-06-10T10:48:33.588Z,2.40
2019-06-10T10:51:04.387Z,2.60
2019-06-10T10:53:33.133Z,2.70
2019-06-10T10:56:02.610Z,2.47
2019-06-10T10:58:33.020Z,2.77
2019-06-10T11:01:04.348Z,2.53
2019-06-10T11:03:33.619Z,3.00
2019-06-10T11:06:02.031Z,2.70
2019-06-10T11:08:33.159Z,2.47
2019-06-10T11:11:05.294Z,2.70
2019-06-10T11:13:35.416Z,2.67
2019-06-10T11:16:04.101Z,2.73
2019-06-10T11:18:33.964Z,2.67
2019-06-10T11:21:05.011Z,2.83
2019-06-10T11:23:33.666Z,2.57
2019-06-10T11:26:03.066Z,2.70
2019-06-10T11:28:32.128Z,2.77
2019-06-10T11:31:03.619Z,2.50
2019-06-10T11:33:32.854Z,2.63
2019-06-10T11:36:02.920Z,3.00
2019-06-10T11:38:32.814Z,2.33
2019-06-10T11:41:01.954Z,3.03
2019-06-10T11:43:32.831Z,2.60
2019-06-10T11:46:06.754Z,2.80
2019-06-10T11:48:32.871Z,2.43
2019-06-10T11:51:01.785Z,3.13
2019-06-10T11:53:31.193Z,3.10
2019-06-10T11:56:02.213Z,3.10
2019-06-10T11:58:29.966Z,2.50
2019-06-10T12:01:00.246Z,3.03
2019-06-10T12:03:28.595Z,2.50
2019-06-10T12:05:59.375Z,3.67
2019-06-10T12:08:27.197Z,3.73
2019-06-10T12:10:59.058Z,3.80
2019-06-10T12:13:25.803Z,3.37
2019-06-10T12:16:34.584Z,3.40
2019-06-10T12:18:24.418Z,2.80
2019-06-10T12:20:58.978Z,3.20
2019-06-10T12:23:23.085Z,2.73
2019-06-10T12:25:54.512Z,3.50
2019-06-10T12:28:22.160Z,3.30
2019-06-10T12:30:54.436Z,3.13
2019-06-10T12:33:24.990Z,3.33
2019-06-10T12:35:54.884Z,4.20
2019-06-10T12:38:22.697Z,3.77
2019-06-10T12:40:52.504Z,3.97
2019-06-10T12:43:23.165Z,3.30
2019-06-10T12:45:53.000Z,3.90
2019-06-10T12:48:22.344Z,3.20
2019-06-10T12:50:53.891Z,3.00
2019-06-10T12:53:22.895Z,3.13
2019-06-10T12:55:53.607Z,4.00
2019-06-10T12:58:22.642Z,3.60
2019-06-10T13:00:53.801Z,4.30
2019-06-10T13:03:23.744Z,4.20
2019-06-10T13:05:53.514Z,5.20
2019-06-10T13:08:23.832Z,4.57
2019-06-10T13:10:53.247Z,3.73
2019-06-10T13:13:22.749Z,3.90
2019-06-10T13:15:53.163Z,4.00
2019-06-10T13:18:23.752Z,4.13
2019-06-10T13:20:53.871Z,3.50
2019-06-10T13:23:30.484Z,3.67
2019-06-10T13:25:57.831Z,3.47
2019-06-10T13:28:22.500Z,3.40
2019-06-10T13:30:54.018Z,3.40
2019-06-10T13:33:23.000Z,3.90
2019-06-10T13:35:53.568Z,3.63
2019-06-10T13:38:22.811Z,4.07
2019-06-10T13:40:53.292Z,3.07
2019-06-10T13:43:23.196Z,3.40
2019-06-10T13:45:53.176Z,3.50
2019-06-10T13:48:25.695Z,3.60
2019-06-10T13:50:52.813Z,3.30
2019-06-10T13:53:21.535Z,4.63
2019-06-10T13:55:55.153Z,3.93
2019-06-10T13:58:22.872Z,3.90
2019-06-10T14:00:53.356Z,3.60
2019-06-10T14:03:22.772Z,4.20
2019-06-10T14:05:57.718Z,4.83
2019-06-10T14:08:23.272Z,4.90
2019-06-10T14:10:53.723Z,4.53
2019-06-10T14:13:23.508Z,4.10
2019-06-10T14:15:53.392Z,4.30
2019-06-10T14:18:23.175Z,5.30
2019-06-10T14:20:53.044Z,5.90
2019-06-10T14:23:22.389Z,5.00
2019-06-10T14:25:52.525Z,5.07
2019-06-10T14:28:38.491Z,5.07
2019-06-10T14:30:53.802Z,6.10
2019-06-10T14:33:23.318Z,5.10
2019-06-10T14:35:53.448Z,4.90
2019-06-10T14:38:22.864Z,5.00
2019-06-10T14:40:52.513Z,5.83
2019-06-10T14:43:23.287Z,5.00
2019-06-10T14:45:53.456Z,5.33
2019-06-10T14:48:23.456Z,4.70
2019-06-10T14:50:52.301Z,4.60
2019-06-10T14:53:23.071Z,4.53
2019-06-10T14:55:53.162Z,3.90
2019-06-10T14:58:23.137Z,3.77
2019-06-10T15:00:54.209Z,3.10
2019-06-10T15:03:21.850Z,3.07
2019-06-10T15:05:52.693Z,3.33
2019-06-10T15:08:22.803Z,2.70
2019-06-10T15:10:52.806Z,3.33
2019-06-10T15:13:23.568Z,3.00
2019-06-10T15:15:53.244Z,2.37
2019-06-10T15:18:23.698Z,3.37
2019-06-10T15:20:53.386Z,3.07
2019-06-10T15:23:23.516Z,3.40
2019-06-10T15:25:53.873Z,3.83
2019-06-10T15:28:23.511Z,3.87
2019-06-10T15:30:52.714Z,4.67
2019-06-10T15:33:23.591Z,3.43
2019-06-10T15:35:53.362Z,4.43
2019-06-10T15:38:23.143Z,4.13
2019-06-10T15:40:53.083Z,4.90
2019-06-10T15:43:23.376Z,4.70
2019-06-10T15:45:53.020Z,3.97
2019-06-10T15:48:24.964Z,4.63
2019-06-10T15:50:52.191Z,5.10
2019-06-10T15:53:25.261Z,4.90
2019-06-10T15:56:10.355Z,4.53
2019-06-10T15:58:25.764Z,4.30
2019-06-10T16:00:53.374Z,5.17
2019-06-10T16:03:25.482Z,4.30
2019-06-10T16:05:53.022Z,4.77
2019-06-10T16:08:22.611Z,4.93
2019-06-10T16:10:52.543Z,5.17
2019-06-10T16:13:25.411Z,4.67
2019-06-10T16:15:53.188Z,4.60
2019-06-10T16:18:25.935Z,8.20
2019-06-10T16:20:52.760Z,6.10
2019-06-10T16:23:24.709Z,4.67
2019-06-10T16:25:53.551Z,7.40
2019-06-10T16:28:23.402Z,5.03
2019-06-10T16:30:53.715Z,5.03
2019-06-10T16:33:26.069Z,5.67
2019-06-10T16:35:52.969Z,5.23
2019-06-10T16:38:23.752Z,4.93
2019-06-10T16:40:53.632Z,4.00
2019-06-10T16:43:24.093Z,3.93
2019-06-10T16:45:52.502Z,5.40
2019-06-10T16:48:21.733Z,5.07
2019-06-10T16:50:53.960Z,5.10
2019-06-10T16:53:24.183Z,4.67
2019-06-10T16:55:52.933Z,5.57
2019-06-10T16:58:26.239Z,4.93
2019-06-10T17:00:51.612Z,4.67
2019-06-10T17:03:23.294Z,4.73
2019-06-10T17:05:50.369Z,5.13
2019-06-10T17:08:20.088Z,5.37
2019-06-10T17:10:49.084Z,4.97
2019-06-10T17:13:19.172Z,6.00
2019-06-10T17:15:47.694Z,5.73
2019-06-10T17:18:16.467Z,4.60
2019-06-10T17:20:44.907Z,4.30
2019-06-10T17:23:26.639Z,4.33
2019-06-10T17:25:55.860Z,4.87
2019-06-10T17:28:29.005Z,5.43
2019-06-10T17:30:56.921Z,4.77
2019-06-10T17:33:27.226Z,6.07
2019-06-10T17:35:55.697Z,4.60
2019-06-10T17:38:24.721Z,4.20
2019-06-10T17:40:53.491Z,5.33
2019-06-10T17:43:23.159Z,4.70
2019-06-10T17:45:52.828Z,4.73
2019-06-10T17:48:22.756Z,4.83
2019-06-10T17:50:52.461Z,4.00
2019-06-10T17:53:22.357Z,4.53
2019-06-10T17:55:51.020Z,4.90
2019-06-10T17:58:31.791Z,5.03
2019-06-10T18:00:49.708Z,4.50
2019-06-10T18:03:18.135Z,4.53
2019-06-10T18:05:46.650Z,4.73
2019-06-10T18:08:15.103Z,4.20
2019-06-10T18:10:43.657Z,3.50
2019-06-10T18:13:16.353Z,3.97
2019-06-10T18:15:42.942Z,3.83
2019-06-10T18:18:13.005Z,3.60
2019-06-10T18:20:43.394Z,4.20
2019-06-10T18:23:13.467Z,3.60
2019-06-10T18:25:43.270Z,3.90
2019-06-10T18:28:12.190Z,3.50
2019-06-10T18:30:43.252Z,4.67
2019-06-10T18:33:11.023Z,3.80
2019-06-10T18:35:39.526Z,4.33
2019-06-10T18:38:07.954Z,3.70
2019-06-10T18:40:36.383Z,3.20
2019-06-10T18:43:05.431Z,4.13
2019-06-10T18:45:36.870Z,3.40
2019-06-10T18:48:04.668Z,4.10
2019-06-10T18:50:35.939Z,3.40
2019-06-10T18:53:04.150Z,3.63
2019-06-10T18:55:35.924Z,3.97
2019-06-10T18:58:03.089Z,4.77
2019-06-10T19:00:49.197Z,4.03
2019-06-10T19:03:10.366Z,3.97
2019-06-10T19:05:33.585Z,3.70
2019-06-10T19:08:02.532Z,4.17
2019-06-10T19:10:33.450Z,3.63
2019-06-10T19:13:02.538Z,3.20
2019-06-10T19:15:31.816Z,3.13
2019-06-10T19:18:03.027Z,3.23
2019-06-10T19:20:34.811Z,3.47
2019-06-10T19:23:02.436Z,2.97
2019-06-10T19:25:33.830Z,3.80
2019-06-10T19:28:02.835Z,3.33
2019-06-10T19:30:34.441Z,3.67
2019-06-10T19:33:02.561Z,3.00
2019-06-10T19:35:33.578Z,3.33
2019-06-10T19:38:02.232Z,3.50
2019-06-10T19:40:32.546Z,3.40
2019-06-10T19:43:02.815Z,3.20
2019-06-10T19:45:32.078Z,4.60
2019-06-10T19:48:03.133Z,3.97
2019-06-10T19:50:34.061Z,5.87
2019-06-10T19:53:02.701Z,7.20
2019-06-10T19:55:32.419Z,5.70
2019-06-10T19:58:03.769Z,5.43
2019-06-10T20:00:33.083Z,4.33
2019-06-10T20:03:02.948Z,4.23
2019-06-10T20:05:32.606Z,3.87
2019-06-10T20:08:03.077Z,3.40
2019-06-10T20:10:32.471Z,3.97
2019-06-10T20:13:01.189Z,3.87
2019-06-10T20:15:29.758Z,3.27
2019-06-10T20:17:58.329Z,3.53
2019-06-10T20:20:26.792Z,3.90
2019-06-10T20:22:57.342Z,3.60
2019-06-10T20:25:25.519Z,3.67
2019-06-10T20:27:53.956Z,3.20
2019-06-10T20:30:28.388Z,4.27
2019-06-10T20:32:55.950Z,3.80
2019-06-10T20:35:23.428Z,4.20
2019-06-10T20:37:53.938Z,3.30
2019-06-10T20:40:22.799Z,3.93
2019-06-10T20:42:51.298Z,3.60
2019-06-10T20:45:19.985Z,4.00
2019-06-10T20:47:48.558Z,3.93
2019-06-10T20:50:17.745Z,4.13
2019-06-10T20:52:47.493Z,3.70
2019-06-10T20:55:16.667Z,4.10
2019-06-10T20:57:55.881Z,4.53
2019-06-10T21:00:25.600Z,3.97
2019-06-10T21:02:53.689Z,4.60
2019-06-10T21:05:22.312Z,6.00
2019-06-10T21:07:52.473Z,5.87
2019-06-10T21:10:24.055Z,6.07
2019-06-10T21:12:52.503Z,5.10
2019-06-10T21:15:22.852Z,7.50
2019-06-10T21:17:51.157Z,9.10
2019-06-10T21:20:19.643Z,9.90
2019-06-10T21:22:49.058Z,10.50
2019-06-10T21:25:17.606Z,10.70
2019-06-10T21:27:46.797Z,9.90
2019-06-10T21:30:16.438Z,9.40
2019-06-10T21:32:46.994Z,8.63
2019-06-10T21:35:16.040Z,7.47
2019-06-10T21:37:46.480Z,7.23
2019-06-10T21:40:14.948Z,6.93
2019-06-10T21:42:43.703Z,6.50
2019-06-10T21:45:12.624Z,5.90
2019-06-10T21:47:44.081Z,5.50
2019-06-10T21:50:12.442Z,5.57
2019-06-10T21:52:44.087Z,4.23
2019-06-10T21:55:13.141Z,5.20
2019-06-10T21:57:47.135Z,4.93
2019-06-10T22:00:17.891Z,4.30
2019-06-10T22:02:47.100Z,4.50
2019-06-10T22:05:17.000Z,4.37
2019-06-10T22:07:45.492Z,4.23
2019-06-10T22:10:14.275Z,4.70
2019-06-10T22:12:43.909Z,4.40
2019-06-10T22:15:13.392Z,4.70
2019-06-10T22:17:42.496Z,4.33
2019-06-10T22:20:12.392Z,4.27
2019-06-10T22:22:42.895Z,4.27
2019-06-10T22:25:13.165Z,3.20
2019-06-10T22:27:42.207Z,3.30
2019-06-10T22:30:11.760Z,4.40
2019-06-10T22:32:42.819Z,4.60
2019-06-10T22:35:12.269Z,3.63
2019-06-10T22:37:40.723Z,4.60
2019-06-10T22:40:09.404Z,4.73
2019-06-10T22:42:37.903Z,5.53
2019-06-10T22:45:08.311Z,6.63
2019-06-10T22:47:36.726Z,5.50
2019-06-10T22:50:07.683Z,6.20
2019-06-10T22:52:36.385Z,6.23
2019-06-10T22:55:08.775Z,5.47
2019-06-10T22:57:37.198Z,7.03
2019-06-10T23:00:12.953Z,7.40
2019-06-10T23:02:40.898Z,6.07
2019-06-10T23:05:13.041Z,6.47
2019-06-10T23:07:40.619Z,6.37
2019-06-10T23:10:12.224Z,5.60
2019-06-10T23:12:40.087Z,5.87
2019-06-10T23:15:09.186Z,6.10
2019-06-10T23:17:37.601Z,5.30
2019-06-10T23:20:06.976Z,6.83
2019-06-10T23:22:35.454Z,6.70
2019-06-10T23:25:06.838Z,6.17
2019-06-10T23:27:35.320Z,6.80
2019-06-10T23:30:11.478Z,6.30
2019-06-10T23:32:35.172Z,7.30
2019-06-10T23:35:04.835Z,7.30
2019-06-10T23:37:33.355Z,7.40
2019-06-10T23:40:03.975Z,7.43
2019-06-10T23:42:32.260Z,7.07
2019-06-10T23:45:04.473Z,6.73
2019-06-10T23:47:32.608Z,8.30
2019-06-10T23:50:04.133Z,8.20
2019-06-10T23:52:32.984Z,7.40
2019-06-10T23:55:04.079Z,7.83
2019-06-10T23:57:32.919Z,7.40
